sensor_id;sensor_type;location;lat;lon;timestamp;P1;durP1;ratioP1;P2;durP2;ratioP2
76127;SDS011;64873;50.102;14.434;2024-02-26T00:01:38;36.22;;;19.55;;
76127;SDS011;64873;50.102;14.434;2024-02-26T00:04:03;38.53;;;19.75;;
76127;SDS011;64873;50.102;14.434;2024-02-26T00:06:29;42.85;;;22.35;;
76127;SDS011;64873;50.102;14.434;2024-02-26T00:08:55;43.60;;;24.58;;
76127;SDS011;64873;50.102;14.434;2024-02-26T00:11:20;47.22;;;21.70;;
76127;SDS011;64873;50.102;14.434;2024-02-26T00:13:46;44.85;;;21.98;;
76127;SDS011;64873;50.102;14.434;2024-02-26T00:16:11;38.90;;;17.02;;
76127;SDS011;64873;50.102;14.434;2024-02-26T00:18:37;37.40;;;16.40;;
76127;SDS011;64873;50.102;14.434;2024-02-26T00:21:02;26.40;;;14.70;;
76127;SDS011;64873;50.102;14.434;2024-02-26T00:23:28;67.50;;;21.17;;
76127;SDS011;64873;50.102;14.434;2024-02-26T00:25:53;49.72;;;23.23;;
76127;SDS011;64873;50.102;14.434;2024-02-26T00:28:18;65.70;;;20.48;;
76127;SDS011;64873;50.102;14.434;2024-02-26T00:30:45;44.65;;;19.63;;
76127;SDS011;64873;50.102;14.434;2024-02-26T00:33:11;47.75;;;20.38;;
76127;SDS011;64873;50.102;14.434;2024-02-26T00:35:36;47.25;;;18.88;;
76127;SDS011;64873;50.102;14.434;2024-02-26T00:38:02;40.47;;;19.52;;
76127;SDS011;64873;50.102;14.434;2024-02-26T00:40:28;64.07;;;23.63;;
76127;SDS011;64873;50.102;14.434;2024-02-26T00:42:54;56.08;;;24.20;;
76127;SDS011;64873;50.102;14.434;2024-02-26T00:45:19;68.03;;;21.23;;
76127;SDS011;64873;50.102;14.434;2024-02-26T00:47:44;38.08;;;19.27;;
76127;SDS011;64873;50.102;14.434;2024-02-26T00:50:12;74.53;;;26.35;;
76127;SDS011;64873;50.102;14.434;2024-02-26T00:52:37;52.22;;;21.63;;
76127;SDS011;64873;50.102;14.434;2024-02-26T00:55:03;41.65;;;19.70;;
76127;SDS011;64873;50.102;14.434;2024-02-26T00:57:28;49.05;;;20.73;;
76127;SDS011;64873;50.102;14.434;2024-02-26T00:59:54;42.03;;;21.73;;
76127;SDS011;64873;50.102;14.434;2024-02-26T01:02:21;49.83;;;22.85;;
76127;SDS011;64873;50.102;14.434;2024-02-26T01:04:47;29.38;;;14.65;;
76127;SDS011;64873;50.102;14.434;2024-02-26T01:07:12;36.05;;;19.15;;
76127;SDS011;64873;50.102;14.434;2024-02-26T01:09:38;44.50;;;22.02;;
76127;SDS011;64873;50.102;14.434;2024-02-26T01:12:03;34.40;;;17.13;;
76127;SDS011;64873;50.102;14.434;2024-02-26T01:14:29;38.28;;;18.25;;
76127;SDS011;64873;50.102;14.434;2024-02-26T01:16:54;46.40;;;24.52;;
76127;SDS011;64873;50.102;14.434;2024-02-26T01:19:20;52.55;;;25.33;;
76127;SDS011;64873;50.102;14.434;2024-02-26T01:21:46;50.97;;;25.45;;
76127;SDS011;64873;50.102;14.434;2024-02-26T01:24:11;41.65;;;20.75;;
76127;SDS011;64873;50.102;14.434;2024-02-26T01:26:37;48.53;;;23.77;;
76127;SDS011;64873;50.102;14.434;2024-02-26T01:29:02;41.03;;;20.63;;
76127;SDS011;64873;50.102;14.434;2024-02-26T01:31:27;48.95;;;22.73;;
76127;SDS011;64873;50.102;14.434;2024-02-26T01:33:53;46.65;;;23.17;;
76127;SDS011;64873;50.102;14.434;2024-02-26T01:36:19;41.10;;;20.27;;
76127;SDS011;64873;50.102;14.434;2024-02-26T01:38:44;46.50;;;24.38;;
76127;SDS011;64873;50.102;14.434;2024-02-26T01:41:09;61.15;;;24.52;;
76127;SDS011;64873;50.102;14.434;2024-02-26T01:43:35;41.40;;;22.00;;
76127;SDS011;64873;50.102;14.434;2024-02-26T01:46:00;39.67;;;19.60;;
76127;SDS011;64873;50.102;14.434;2024-02-26T01:48:26;36.88;;;19.60;;
76127;SDS011;64873;50.102;14.434;2024-02-26T01:50:51;43.83;;;20.77;;
76127;SDS011;64873;50.102;14.434;2024-02-26T01:53:17;43.72;;;22.15;;
76127;SDS011;64873;50.102;14.434;2024-02-26T01:55:44;34.90;;;19.05;;
76127;SDS011;64873;50.102;14.434;2024-02-26T01:58:10;35.10;;;19.65;;
76127;SDS011;64873;50.102;14.434;2024-02-26T02:00:37;70.03;;;21.63;;
76127;SDS011;64873;50.102;14.434;2024-02-26T02:03:03;54.55;;;20.45;;
76127;SDS011;64873;50.102;14.434;2024-02-26T02:05:30;46.58;;;19.88;;
76127;SDS011;64873;50.102;14.434;2024-02-26T02:07:55;43.95;;;18.05;;
76127;SDS011;64873;50.102;14.434;2024-02-26T02:10:21;42.55;;;18.05;;
76127;SDS011;64873;50.102;14.434;2024-02-26T02:12:50;37.85;;;19.48;;
76127;SDS011;64873;50.102;14.434;2024-02-26T02:15:16;65.82;;;19.55;;
76127;SDS011;64873;50.102;14.434;2024-02-26T02:17:42;28.90;;;16.08;;
76127;SDS011;64873;50.102;14.434;2024-02-26T02:20:09;62.13;;;18.98;;
76127;SDS011;64873;50.102;14.434;2024-02-26T02:22:39;30.70;;;15.20;;
76127;SDS011;64873;50.102;14.434;2024-02-26T02:25:05;33.75;;;16.63;;
76127;SDS011;64873;50.102;14.434;2024-02-26T02:27:30;58.97;;;22.75;;
76127;SDS011;64873;50.102;14.434;2024-02-26T02:29:56;39.88;;;18.77;;
76127;SDS011;64873;50.102;14.434;2024-02-26T02:32:21;69.65;;;24.98;;
76127;SDS011;64873;50.102;14.434;2024-02-26T02:34:49;38.47;;;19.30;;
76127;SDS011;64873;50.102;14.434;2024-02-26T02:37:14;64.93;;;21.88;;
76127;SDS011;64873;50.102;14.434;2024-02-26T02:39:39;47.63;;;22.25;;
76127;SDS011;64873;50.102;14.434;2024-02-26T02:42:07;50.20;;;24.00;;
76127;SDS011;64873;50.102;14.434;2024-02-26T02:44:32;51.17;;;19.50;;
76127;SDS011;64873;50.102;14.434;2024-02-26T02:46:58;43.22;;;21.50;;
76127;SDS011;64873;50.102;14.434;2024-02-26T02:49:23;39.65;;;20.60;;
76127;SDS011;64873;50.102;14.434;2024-02-26T02:51:48;46.25;;;23.95;;
76127;SDS011;64873;50.102;14.434;2024-02-26T02:54:14;46.28;;;21.70;;
76127;SDS011;64873;50.102;14.434;2024-02-26T02:56:39;47.22;;;24.00;;
76127;SDS011;64873;50.102;14.434;2024-02-26T02:59:04;35.83;;;19.88;;
76127;SDS011;64873;50.102;14.434;2024-02-26T03:01:30;40.92;;;21.63;;
76127;SDS011;64873;50.102;14.434;2024-02-26T03:03:55;47.33;;;23.15;;
76127;SDS011;64873;50.102;14.434;2024-02-26T03:06:21;39.08;;;17.58;;
76127;SDS011;64873;50.102;14.434;2024-02-26T03:08:46;36.17;;;17.83;;
76127;SDS011;64873;50.102;14.434;2024-02-26T03:11:15;32.38;;;17.27;;
76127;SDS011;64873;50.102;14.434;2024-02-26T03:13:40;36.80;;;17.80;;
76127;SDS011;64873;50.102;14.434;2024-02-26T03:16:06;32.28;;;15.77;;
76127;SDS011;64873;50.102;14.434;2024-02-26T03:18:32;29.02;;;12.63;;
76127;SDS011;64873;50.102;14.434;2024-02-26T03:20:57;37.00;;;16.67;;
76127;SDS011;64873;50.102;14.434;2024-02-26T03:23:22;58.60;;;20.98;;
76127;SDS011;64873;50.102;14.434;2024-02-26T03:25:48;47.70;;;15.70;;
76127;SDS011;64873;50.102;14.434;2024-02-26T03:28:13;40.67;;;15.52;;
76127;SDS011;64873;50.102;14.434;2024-02-26T03:30:39;61.15;;;17.85;;
76127;SDS011;64873;50.102;14.434;2024-02-26T03:33:04;23.55;;;13.55;;
76127;SDS011;64873;50.102;14.434;2024-02-26T03:35:29;49.38;;;16.40;;
76127;SDS011;64873;50.102;14.434;2024-02-26T03:37:55;34.70;;;13.70;;
76127;SDS011;64873;50.102;14.434;2024-02-26T03:40:20;30.92;;;16.15;;
76127;SDS011;64873;50.102;14.434;2024-02-26T03:42:46;38.65;;;20.95;;
76127;SDS011;64873;50.102;14.434;2024-02-26T03:45:11;42.00;;;22.73;;
76127;SDS011;64873;50.102;14.434;2024-02-26T03:47:40;32.13;;;16.20;;
76127;SDS011;64873;50.102;14.434;2024-02-26T03:50:06;29.67;;;16.98;;
76127;SDS011;64873;50.102;14.434;2024-02-26T03:52:32;43.95;;;22.40;;
76127;SDS011;64873;50.102;14.434;2024-02-26T03:54:59;26.30;;;14.50;;
76127;SDS011;64873;50.102;14.434;2024-02-26T03:57:24;60.20;;;18.45;;
76127;SDS011;64873;50.102;14.434;2024-02-26T03:59:49;29.90;;;15.75;;
76127;SDS011;64873;50.102;14.434;2024-02-26T04:02:15;26.45;;;13.57;;
76127;SDS011;64873;50.102;14.434;2024-02-26T04:04:41;34.90;;;17.80;;
76127;SDS011;64873;50.102;14.434;2024-02-26T04:07:06;36.22;;;16.98;;
76127;SDS011;64873;50.102;14.434;2024-02-26T04:09:32;27.25;;;11.75;;
76127;SDS011;64873;50.102;14.434;2024-02-26T04:11:58;34.30;;;17.27;;
76127;SDS011;64873;50.102;14.434;2024-02-26T04:14:23;34.58;;;15.35;;
76127;SDS011;64873;50.102;14.434;2024-02-26T04:16:48;22.33;;;11.90;;
76127;SDS011;64873;50.102;14.434;2024-02-26T04:19:17;45.17;;;20.23;;
76127;SDS011;64873;50.102;14.434;2024-02-26T04:21:42;57.65;;;22.17;;
76127;SDS011;64873;50.102;14.434;2024-02-26T04:24:08;41.75;;;20.30;;
76127;SDS011;64873;50.102;14.434;2024-02-26T04:26:34;39.75;;;17.63;;
76127;SDS011;64873;50.102;14.434;2024-02-26T04:28:59;25.23;;;13.60;;
76127;SDS011;64873;50.102;14.434;2024-02-26T04:31:25;50.17;;;16.98;;
76127;SDS011;64873;50.102;14.434;2024-02-26T04:33:51;25.60;;;13.95;;
76127;SDS011;64873;50.102;14.434;2024-02-26T04:36:17;36.95;;;17.92;;
76127;SDS011;64873;50.102;14.434;2024-02-26T04:38:43;27.98;;;15.80;;
76127;SDS011;64873;50.102;14.434;2024-02-26T04:41:09;42.63;;;19.90;;
76127;SDS011;64873;50.102;14.434;2024-02-26T04:43:34;27.92;;;12.13;;
76127;SDS011;64873;50.102;14.434;2024-02-26T04:46:06;34.40;;;18.38;;
76127;SDS011;64873;50.102;14.434;2024-02-26T04:48:33;30.70;;;15.55;;
76127;SDS011;64873;50.102;14.434;2024-02-26T04:50:58;37.70;;;18.70;;
76127;SDS011;64873;50.102;14.434;2024-02-26T04:53:24;34.08;;;19.75;;
76127;SDS011;64873;50.102;14.434;2024-02-26T04:55:49;32.75;;;17.77;;
76127;SDS011;64873;50.102;14.434;2024-02-26T04:58:15;34.72;;;15.60;;
76127;SDS011;64873;50.102;14.434;2024-02-26T05:00:40;27.10;;;13.85;;
76127;SDS011;64873;50.102;14.434;2024-02-26T05:03:05;30.95;;;13.98;;
76127;SDS011;64873;50.102;14.434;2024-02-26T05:05:31;25.10;;;14.73;;
76127;SDS011;64873;50.102;14.434;2024-02-26T05:07:56;32.40;;;15.68;;
76127;SDS011;64873;50.102;14.434;2024-02-26T05:10:21;44.95;;;19.80;;
76127;SDS011;64873;50.102;14.434;2024-02-26T05:12:47;49.42;;;21.10;;
76127;SDS011;64873;50.102;14.434;2024-02-26T05:15:13;46.00;;;19.80;;
76127;SDS011;64873;50.102;14.434;2024-02-26T05:17:43;42.75;;;18.70;;
76127;SDS011;64873;50.102;14.434;2024-02-26T05:20:09;45.90;;;19.42;;
76127;SDS011;64873;50.102;14.434;2024-02-26T05:22:34;53.25;;;22.38;;
76127;SDS011;64873;50.102;14.434;2024-02-26T05:25:00;52.80;;;21.40;;
76127;SDS011;64873;50.102;14.434;2024-02-26T05:27:25;67.47;;;20.10;;
76127;SDS011;64873;50.102;14.434;2024-02-26T05:29:51;37.80;;;17.77;;
76127;SDS011;64873;50.102;14.434;2024-02-26T05:32:16;57.85;;;19.80;;
76127;SDS011;64873;50.102;14.434;2024-02-26T05:34:42;41.53;;;19.70;;
76127;SDS011;64873;50.102;14.434;2024-02-26T05:37:07;34.63;;;16.25;;
76127;SDS011;64873;50.102;14.434;2024-02-26T05:39:33;58.25;;;20.27;;
76127;SDS011;64873;50.102;14.434;2024-02-26T05:41:58;44.50;;;19.00;;
76127;SDS011;64873;50.102;14.434;2024-02-26T05:44:25;44.13;;;18.23;;
76127;SDS011;64873;50.102;14.434;2024-02-26T05:46:51;35.00;;;14.77;;
76127;SDS011;64873;50.102;14.434;2024-02-26T05:49:17;25.95;;;14.32;;
76127;SDS011;64873;50.102;14.434;2024-02-26T05:51:42;25.52;;;13.60;;
76127;SDS011;64873;50.102;14.434;2024-02-26T05:54:07;46.53;;;17.35;;
76127;SDS011;64873;50.102;14.434;2024-02-26T05:56:35;37.60;;;16.23;;
76127;SDS011;64873;50.102;14.434;2024-02-26T05:59:00;25.10;;;10.88;;
76127;SDS011;64873;50.102;14.434;2024-02-26T06:01:25;25.10;;;14.68;;
76127;SDS011;64873;50.102;14.434;2024-02-26T06:03:51;37.40;;;14.77;;
76127;SDS011;64873;50.102;14.434;2024-02-26T06:06:17;38.50;;;17.83;;
76127;SDS011;64873;50.102;14.434;2024-02-26T06:08:42;26.45;;;13.65;;
76127;SDS011;64873;50.102;14.434;2024-02-26T06:11:08;35.17;;;15.40;;
76127;SDS011;64873;50.102;14.434;2024-02-26T06:13:34;30.25;;;16.85;;
76127;SDS011;64873;50.102;14.434;2024-02-26T06:16:00;31.02;;;15.15;;
76127;SDS011;64873;50.102;14.434;2024-02-26T06:18:25;32.88;;;18.52;;
76127;SDS011;64873;50.102;14.434;2024-02-26T06:20:51;34.47;;;17.83;;
76127;SDS011;64873;50.102;14.434;2024-02-26T06:23:16;42.97;;;16.55;;
76127;SDS011;64873;50.102;14.434;2024-02-26T06:25:42;28.52;;;16.15;;
76127;SDS011;64873;50.102;14.434;2024-02-26T06:28:10;39.05;;;17.23;;
76127;SDS011;64873;50.102;14.434;2024-02-26T06:30:36;26.15;;;13.18;;
76127;SDS011;64873;50.102;14.434;2024-02-26T06:33:01;29.30;;;13.63;;
76127;SDS011;64873;50.102;14.434;2024-02-26T06:35:26;45.55;;;18.77;;
76127;SDS011;64873;50.102;14.434;2024-02-26T06:37:52;23.65;;;13.93;;
76127;SDS011;64873;50.102;14.434;2024-02-26T06:40:18;22.05;;;12.48;;
76127;SDS011;64873;50.102;14.434;2024-02-26T06:42:44;38.72;;;14.05;;
76127;SDS011;64873;50.102;14.434;2024-02-26T06:45:10;26.58;;;13.15;;
76127;SDS011;64873;50.102;14.434;2024-02-26T06:47:35;20.75;;;11.65;;
76127;SDS011;64873;50.102;14.434;2024-02-26T06:50:01;29.38;;;13.20;;
76127;SDS011;64873;50.102;14.434;2024-02-26T06:52:26;20.05;;;10.57;;
76127;SDS011;64873;50.102;14.434;2024-02-26T06:54:52;33.53;;;15.38;;
76127;SDS011;64873;50.102;14.434;2024-02-26T06:57:20;33.40;;;15.65;;
76127;SDS011;64873;50.102;14.434;2024-02-26T06:59:46;28.75;;;15.63;;
76127;SDS011;64873;50.102;14.434;2024-02-26T07:02:15;30.98;;;13.60;;
76127;SDS011;64873;50.102;14.434;2024-02-26T07:04:41;23.83;;;14.25;;
76127;SDS011;64873;50.102;14.434;2024-02-26T07:07:07;35.53;;;16.38;;
76127;SDS011;64873;50.102;14.434;2024-02-26T07:09:33;31.00;;;17.75;;
76127;SDS011;64873;50.102;14.434;2024-02-26T07:11:59;31.90;;;15.35;;
76127;SDS011;64873;50.102;14.434;2024-02-26T07:14:24;41.85;;;18.00;;
76127;SDS011;64873;50.102;14.434;2024-02-26T07:16:50;31.73;;;16.92;;
76127;SDS011;64873;50.102;14.434;2024-02-26T07:19:15;31.48;;;17.48;;
76127;SDS011;64873;50.102;14.434;2024-02-26T07:21:41;55.60;;;19.42;;
76127;SDS011;64873;50.102;14.434;2024-02-26T07:24:06;42.83;;;19.60;;
76127;SDS011;64873;50.102;14.434;2024-02-26T07:26:32;56.20;;;21.88;;
76127;SDS011;64873;50.102;14.434;2024-02-26T07:28:57;41.97;;;18.92;;
76127;SDS011;64873;50.102;14.434;2024-02-26T07:31:23;31.80;;;18.15;;
76127;SDS011;64873;50.102;14.434;2024-02-26T07:33:48;38.20;;;18.25;;
76127;SDS011;64873;50.102;14.434;2024-02-26T07:36:14;45.17;;;21.63;;
76127;SDS011;64873;50.102;14.434;2024-02-26T07:38:39;49.38;;;22.77;;
76127;SDS011;64873;50.102;14.434;2024-02-26T07:41:05;44.67;;;22.33;;
76127;SDS011;64873;50.102;14.434;2024-02-26T07:43:30;44.78;;;22.23;;
76127;SDS011;64873;50.102;14.434;2024-02-26T07:45:55;48.40;;;24.73;;
76127;SDS011;64873;50.102;14.434;2024-02-26T07:48:21;50.80;;;23.25;;
76127;SDS011;64873;50.102;14.434;2024-02-26T07:50:46;48.72;;;22.88;;
76127;SDS011;64873;50.102;14.434;2024-02-26T07:53:12;40.70;;;19.58;;
76127;SDS011;64873;50.102;14.434;2024-02-26T07:55:38;46.90;;;21.33;;
76127;SDS011;64873;50.102;14.434;2024-02-26T07:58:04;51.25;;;21.05;;
76127;SDS011;64873;50.102;14.434;2024-02-26T08:00:29;39.75;;;18.02;;
76127;SDS011;64873;50.102;14.434;2024-02-26T08:02:54;48.40;;;20.63;;
76127;SDS011;64873;50.102;14.434;2024-02-26T08:05:20;39.13;;;17.33;;
76127;SDS011;64873;50.102;14.434;2024-02-26T08:07:45;36.58;;;18.55;;
76127;SDS011;64873;50.102;14.434;2024-02-26T08:10:11;42.65;;;22.02;;
76127;SDS011;64873;50.102;14.434;2024-02-26T08:12:36;36.90;;;18.67;;
76127;SDS011;64873;50.102;14.434;2024-02-26T08:15:02;40.42;;;16.73;;
76127;SDS011;64873;50.102;14.434;2024-02-26T08:17:28;44.42;;;17.40;;
76127;SDS011;64873;50.102;14.434;2024-02-26T08:19:53;33.70;;;18.10;;
76127;SDS011;64873;50.102;14.434;2024-02-26T08:22:18;33.22;;;16.25;;
76127;SDS011;64873;50.102;14.434;2024-02-26T08:24:44;45.80;;;19.30;;
76127;SDS011;64873;50.102;14.434;2024-02-26T08:27:10;38.70;;;18.42;;
76127;SDS011;64873;50.102;14.434;2024-02-26T08:29:35;32.63;;;16.23;;
76127;SDS011;64873;50.102;14.434;2024-02-26T08:32:00;34.38;;;17.23;;
76127;SDS011;64873;50.102;14.434;2024-02-26T08:34:26;42.08;;;16.67;;
76127;SDS011;64873;50.102;14.434;2024-02-26T08:36:51;37.65;;;18.30;;
76127;SDS011;64873;50.102;14.434;2024-02-26T08:39:17;38.03;;;16.77;;
76127;SDS011;64873;50.102;14.434;2024-02-26T08:41:45;43.25;;;17.85;;
76127;SDS011;64873;50.102;14.434;2024-02-26T08:44:11;44.38;;;20.75;;
76127;SDS011;64873;50.102;14.434;2024-02-26T08:46:36;46.97;;;21.35;;
76127;SDS011;64873;50.102;14.434;2024-02-26T08:49:02;38.45;;;16.40;;
76127;SDS011;64873;50.102;14.434;2024-02-26T08:51:28;42.67;;;16.17;;
76127;SDS011;64873;50.102;14.434;2024-02-26T08:53:53;46.45;;;16.77;;
76127;SDS011;64873;50.102;14.434;2024-02-26T08:56:19;30.85;;;15.15;;
76127;SDS011;64873;50.102;14.434;2024-02-26T08:58:46;33.08;;;15.73;;
76127;SDS011;64873;50.102;14.434;2024-02-26T09:01:14;34.08;;;15.57;;
76127;SDS011;64873;50.102;14.434;2024-02-26T09:03:40;36.33;;;15.63;;
76127;SDS011;64873;50.102;14.434;2024-02-26T09:06:08;35.22;;;16.30;;
76127;SDS011;64873;50.102;14.434;2024-02-26T09:08:33;28.80;;;15.95;;
76127;SDS011;64873;50.102;14.434;2024-02-26T09:11:01;42.97;;;20.42;;
76127;SDS011;64873;50.102;14.434;2024-02-26T09:13:26;45.30;;;20.48;;
76127;SDS011;64873;50.102;14.434;2024-02-26T09:15:51;30.13;;;14.73;;
76127;SDS011;64873;50.102;14.434;2024-02-26T09:18:17;34.75;;;16.75;;
76127;SDS011;64873;50.102;14.434;2024-02-26T09:20:42;32.20;;;14.45;;
76127;SDS011;64873;50.102;14.434;2024-02-26T09:23:08;33.38;;;17.15;;
76127;SDS011;64873;50.102;14.434;2024-02-26T09:25:34;32.30;;;17.20;;
76127;SDS011;64873;50.102;14.434;2024-02-26T09:28:00;29.92;;;16.00;;
76127;SDS011;64873;50.102;14.434;2024-02-26T09:30:26;36.97;;;15.77;;
76127;SDS011;64873;50.102;14.434;2024-02-26T09:32:51;37.65;;;15.98;;
76127;SDS011;64873;50.102;14.434;2024-02-26T09:35:16;36.90;;;15.77;;
76127;SDS011;64873;50.102;14.434;2024-02-26T09:37:42;26.48;;;14.93;;
76127;SDS011;64873;50.102;14.434;2024-02-26T09:40:09;41.90;;;17.45;;
76127;SDS011;64873;50.102;14.434;2024-02-26T09:42:37;31.25;;;16.83;;
76127;SDS011;64873;50.102;14.434;2024-02-26T09:45:19;31.77;;;17.92;;
76127;SDS011;64873;50.102;14.434;2024-02-26T09:47:47;30.50;;;15.02;;
76127;SDS011;64873;50.102;14.434;2024-02-26T09:50:14;28.13;;;15.55;;
76127;SDS011;64873;50.102;14.434;2024-02-26T09:52:42;28.90;;;14.38;;
76127;SDS011;64873;50.102;14.434;2024-02-26T09:55:08;28.45;;;14.05;;
76127;SDS011;64873;50.102;14.434;2024-02-26T09:57:35;33.78;;;15.25;;
76127;SDS011;64873;50.102;14.434;2024-02-26T10:00:02;33.00;;;15.57;;
76127;SDS011;64873;50.102;14.434;2024-02-26T10:02:33;37.80;;;16.92;;
76127;SDS011;64873;50.102;14.434;2024-02-26T10:05:02;30.75;;;16.42;;
76127;SDS011;64873;50.102;14.434;2024-02-26T10:07:30;29.25;;;15.23;;
76127;SDS011;64873;50.102;14.434;2024-02-26T10:09:56;30.88;;;17.05;;
76127;SDS011;64873;50.102;14.434;2024-02-26T10:12:24;33.92;;;15.88;;
76127;SDS011;64873;50.102;14.434;2024-02-26T10:14:52;34.78;;;16.02;;
76127;SDS011;64873;50.102;14.434;2024-02-26T10:17:18;28.80;;;15.10;;
76127;SDS011;64873;50.102;14.434;2024-02-26T10:19:45;31.08;;;13.63;;
76127;SDS011;64873;50.102;14.434;2024-02-26T10:22:10;30.33;;;15.25;;
76127;SDS011;64873;50.102;14.434;2024-02-26T10:24:36;31.50;;;14.90;;
76127;SDS011;64873;50.102;14.434;2024-02-26T10:27:02;28.88;;;14.75;;
76127;SDS011;64873;50.102;14.434;2024-02-26T10:29:27;26.15;;;14.68;;
76127;SDS011;64873;50.102;14.434;2024-02-26T10:31:53;30.08;;;15.15;;
76127;SDS011;64873;50.102;14.434;2024-02-26T10:34:19;29.80;;;16.08;;
76127;SDS011;64873;50.102;14.434;2024-02-26T10:36:45;26.02;;;15.18;;
76127;SDS011;64873;50.102;14.434;2024-02-26T10:39:13;36.80;;;16.73;;
76127;SDS011;64873;50.102;14.434;2024-02-26T10:41:43;37.38;;;17.42;;
76127;SDS011;64873;50.102;14.434;2024-02-26T10:44:09;30.13;;;15.85;;
76127;SDS011;64873;50.102;14.434;2024-02-26T10:46:38;36.03;;;18.00;;
76127;SDS011;64873;50.102;14.434;2024-02-26T10:49:05;30.88;;;15.93;;
76127;SDS011;64873;50.102;14.434;2024-02-26T10:51:37;30.63;;;16.42;;
76127;SDS011;64873;50.102;14.434;2024-02-26T10:54:03;32.13;;;16.70;;
76127;SDS011;64873;50.102;14.434;2024-02-26T10:56:33;33.60;;;16.33;;
76127;SDS011;64873;50.102;14.434;2024-02-26T10:58:59;32.08;;;16.60;;
76127;SDS011;64873;50.102;14.434;2024-02-26T11:01:25;29.50;;;14.70;;
76127;SDS011;64873;50.102;14.434;2024-02-26T11:03:54;34.30;;;17.23;;
76127;SDS011;64873;50.102;14.434;2024-02-26T11:06:21;29.55;;;14.55;;
76127;SDS011;64873;50.102;14.434;2024-02-26T11:08:50;25.48;;;13.00;;
76127;SDS011;64873;50.102;14.434;2024-02-26T11:11:16;24.30;;;12.90;;
76127;SDS011;64873;50.102;14.434;2024-02-26T11:13:43;20.42;;;11.48;;
76127;SDS011;64873;50.102;14.434;2024-02-26T11:16:14;24.27;;;12.77;;
76127;SDS011;64873;50.102;14.434;2024-02-26T11:18:42;23.48;;;11.80;;
76127;SDS011;64873;50.102;14.434;2024-02-26T11:21:13;26.88;;;13.48;;
76127;SDS011;64873;50.102;14.434;2024-02-26T11:23:41;22.50;;;12.50;;
76127;SDS011;64873;50.102;14.434;2024-02-26T11:26:07;19.63;;;11.82;;
76127;SDS011;64873;50.102;14.434;2024-02-26T11:28:35;20.25;;;11.30;;
76127;SDS011;64873;50.102;14.434;2024-02-26T11:31:03;17.88;;;11.50;;
76127;SDS011;64873;50.102;14.434;2024-02-26T11:33:29;18.75;;;11.02;;
76127;SDS011;64873;50.102;14.434;2024-02-26T11:35:55;18.52;;;10.85;;
76127;SDS011;64873;50.102;14.434;2024-02-26T11:38:21;22.92;;;11.63;;
76127;SDS011;64873;50.102;14.434;2024-02-26T11:40:48;20.15;;;12.32;;
76127;SDS011;64873;50.102;14.434;2024-02-26T11:43:15;21.92;;;11.88;;
76127;SDS011;64873;50.102;14.434;2024-02-26T11:48:13;25.02;;;13.05;;
76127;SDS011;64873;50.102;14.434;2024-02-26T11:50:47;21.80;;;12.02;;
76127;SDS011;64873;50.102;14.434;2024-02-26T11:53:27;23.98;;;12.82;;
76127;SDS011;64873;50.102;14.434;2024-02-26T11:58:42;25.70;;;12.50;;
76127;SDS011;64873;50.102;14.434;2024-02-26T12:04:12;26.85;;;12.40;;
76127;SDS011;64873;50.102;14.434;2024-02-26T12:06:55;26.67;;;13.40;;
76127;SDS011;64873;50.102;14.434;2024-02-26T12:09:40;22.63;;;12.15;;
76127;SDS011;64873;50.102;14.434;2024-02-26T12:12:07;20.73;;;12.43;;
76127;SDS011;64873;50.102;14.434;2024-02-26T12:14:55;22.90;;;14.05;;
76127;SDS011;64873;50.102;14.434;2024-02-26T12:17:22;24.23;;;12.35;;
76127;SDS011;64873;50.102;14.434;2024-02-26T12:19:48;27.50;;;14.63;;
76127;SDS011;64873;50.102;14.434;2024-02-26T12:22:15;24.73;;;12.27;;
76127;SDS011;64873;50.102;14.434;2024-02-26T12:24:41;20.42;;;13.38;;
76127;SDS011;64873;50.102;14.434;2024-02-26T12:27:07;22.92;;;13.55;;
76127;SDS011;64873;50.102;14.434;2024-02-26T12:29:32;28.05;;;14.82;;
76127;SDS011;64873;50.102;14.434;2024-02-26T12:31:58;25.55;;;13.13;;
76127;SDS011;64873;50.102;14.434;2024-02-26T12:34:23;25.33;;;13.52;;
76127;SDS011;64873;50.102;14.434;2024-02-26T12:36:49;30.33;;;14.75;;
76127;SDS011;64873;50.102;14.434;2024-02-26T12:39:15;25.88;;;13.73;;
76127;SDS011;64873;50.102;14.434;2024-02-26T12:41:41;25.08;;;13.68;;
76127;SDS011;64873;50.102;14.434;2024-02-26T12:44:11;29.67;;;13.98;;
76127;SDS011;64873;50.102;14.434;2024-02-26T12:46:37;23.92;;;13.30;;
76127;SDS011;64873;50.102;14.434;2024-02-26T12:49:02;21.15;;;11.75;;
76127;SDS011;64873;50.102;14.434;2024-02-26T12:51:27;24.70;;;12.88;;
76127;SDS011;64873;50.102;14.434;2024-02-26T12:53:55;24.98;;;13.63;;
76127;SDS011;64873;50.102;14.434;2024-02-26T12:56:21;23.30;;;12.18;;
76127;SDS011;64873;50.102;14.434;2024-02-26T12:58:48;23.02;;;13.02;;
76127;SDS011;64873;50.102;14.434;2024-02-26T13:01:16;25.58;;;12.73;;
76127;SDS011;64873;50.102;14.434;2024-02-26T13:03:44;24.23;;;12.32;;
76127;SDS011;64873;50.102;14.434;2024-02-26T13:06:10;24.17;;;12.93;;
76127;SDS011;64873;50.102;14.434;2024-02-26T13:08:36;20.20;;;11.73;;
76127;SDS011;64873;50.102;14.434;2024-02-26T13:11:01;21.85;;;12.00;;
76127;SDS011;64873;50.102;14.434;2024-02-26T13:13:27;26.45;;;11.88;;
76127;SDS011;64873;50.102;14.434;2024-02-26T13:16:05;22.85;;;13.13;;
76127;SDS011;64873;50.102;14.434;2024-02-26T13:18:33;23.08;;;12.13;;
76127;SDS011;64873;50.102;14.434;2024-02-26T13:23:52;30.52;;;12.40;;
76127;SDS011;64873;50.102;14.434;2024-02-26T13:26:18;22.15;;;12.90;;
76127;SDS011;64873;50.102;14.434;2024-02-26T13:28:47;24.08;;;12.82;;
76127;SDS011;64873;50.102;14.434;2024-02-26T13:31:12;23.55;;;12.60;;
76127;SDS011;64873;50.102;14.434;2024-02-26T13:33:37;24.08;;;13.20;;
76127;SDS011;64873;50.102;14.434;2024-02-26T13:36:03;20.33;;;11.52;;
76127;SDS011;64873;50.102;14.434;2024-02-26T13:38:29;22.20;;;12.25;;
76127;SDS011;64873;50.102;14.434;2024-02-26T13:40:54;25.80;;;12.18;;
76127;SDS011;64873;50.102;14.434;2024-02-26T13:43:20;26.67;;;13.80;;
76127;SDS011;64873;50.102;14.434;2024-02-26T13:45:46;20.52;;;11.60;;
76127;SDS011;64873;50.102;14.434;2024-02-26T13:48:12;19.83;;;11.15;;
76127;SDS011;64873;50.102;14.434;2024-02-26T13:50:39;32.83;;;11.95;;
76127;SDS011;64873;50.102;14.434;2024-02-26T13:53:05;18.55;;;10.90;;
76127;SDS011;64873;50.102;14.434;2024-02-26T13:55:31;19.77;;;11.88;;
76127;SDS011;64873;50.102;14.434;2024-02-26T13:57:57;24.77;;;11.65;;
76127;SDS011;64873;50.102;14.434;2024-02-26T14:00:24;20.98;;;12.55;;
76127;SDS011;64873;50.102;14.434;2024-02-26T14:02:50;24.45;;;12.52;;
76127;SDS011;64873;50.102;14.434;2024-02-26T14:05:15;21.90;;;12.07;;
76127;SDS011;64873;50.102;14.434;2024-02-26T14:07:41;26.83;;;13.30;;
76127;SDS011;64873;50.102;14.434;2024-02-26T14:10:08;24.45;;;12.13;;
76127;SDS011;64873;50.102;14.434;2024-02-26T14:12:35;26.35;;;12.63;;
76127;SDS011;64873;50.102;14.434;2024-02-26T14:15:00;21.38;;;12.10;;